createdAt,value
2022-11-23T00:00:34.917Z,7.23
2022-11-23T00:05:39.088Z,7.23
2022-11-23T00:10:43.188Z,7.23
2022-11-23T00:15:47.400Z,7.27
2022-11-23T00:20:51.521Z,7.31
2022-11-23T00:25:55.691Z,7.34
2022-11-23T00:30:59.876Z,7.36
2022-11-23T00:36:04.036Z,7.43
2022-11-23T00:41:08.181Z,7.47
2022-11-23T00:46:12.341Z,7.51
2022-11-23T00:51:16.560Z,7.56
2022-11-23T00:56:20.666Z,7.57
2022-11-23T01:01:24.881Z,7.61
2022-11-23T01:06:29.007Z,7.65
2022-11-23T01:11:33.196Z,7.69
2022-11-23T01:16:37.313Z,7.72
2022-11-23T01:21:41.476Z,7.73
2022-11-23T01:26:45.653Z,7.79
2022-11-23T01:31:50.116Z,7.80
2022-11-23T01:36:53.959Z,7.81
2022-11-23T01:41:58.112Z,7.87
2022-11-23T01:47:02.302Z,7.86
2022-11-23T01:52:04.533Z,7.86
2022-11-23T01:57:08.735Z,7.90
2022-11-23T02:02:12.884Z,7.93
2022-11-23T02:07:17.116Z,7.98
2022-11-23T02:12:21.199Z,8.01
2022-11-23T02:17:25.357Z,8.03
2022-11-23T02:22:29.548Z,8.05
2022-11-23T02:27:33.699Z,8.09
2022-11-23T02:32:37.845Z,8.13
2022-11-23T02:37:42.057Z,8.14
2022-11-23T02:42:46.202Z,8.14
2022-11-23T02:47:50.368Z,8.15
2022-11-23T02:52:54.685Z,8.17
2022-11-23T02:57:58.689Z,8.18
2022-11-23T03:03:02.816Z,8.18
2022-11-23T03:08:07.029Z,8.22
2022-11-23T03:13:11.160Z,8.20
2022-11-23T03:18:15.320Z,8.21
2022-11-23T03:23:19.494Z,8.18
2022-11-23T03:28:23.631Z,8.13
2022-11-23T03:33:27.817Z,8.02
2022-11-23T03:38:31.955Z,7.89
2022-11-23T03:43:36.161Z,7.80
2022-11-23T03:48:40.296Z,7.74
2022-11-23T03:53:44.462Z,7.68
2022-11-23T03:58:48.593Z,7.65
2022-11-23T04:03:52.764Z,7.62
2022-11-23T04:09:01.747Z,7.59
2022-11-23T04:14:01.180Z,7.58
2022-11-23T04:19:05.276Z,7.54
2022-11-23T04:24:09.447Z,7.50
2022-11-23T04:29:13.590Z,7.47
2022-11-23T04:34:17.784Z,7.44
2022-11-23T04:39:21.889Z,7.44
2022-11-23T04:44:26.084Z,7.44
2022-11-23T04:49:30.735Z,7.49
2022-11-23T04:54:34.400Z,7.48
2022-11-23T04:59:38.531Z,7.44
2022-11-23T05:04:42.741Z,7.41
2022-11-23T05:09:46.920Z,7.39
2022-11-23T05:14:51.068Z,7.39
2022-11-23T05:19:55.182Z,7.38
2022-11-23T05:24:59.366Z,7.37
2022-11-23T05:30:03.579Z,7.37
2022-11-23T05:35:07.724Z,7.36
2022-11-23T05:40:11.889Z,7.37
2022-11-23T05:45:16.038Z,7.38
2022-11-23T05:50:20.165Z,7.40
2022-11-23T05:55:24.332Z,7.37
2022-11-23T06:00:28.512Z,7.34
2022-11-23T06:05:32.641Z,7.34
2022-11-23T06:10:36.869Z,7.31
2022-11-23T06:15:40.992Z,7.30
2022-11-23T06:20:45.155Z,7.35
2022-11-23T06:30:53.454Z,7.39
2022-11-23T06:35:57.687Z,7.38
2022-11-23T06:41:01.815Z,7.38
2022-11-23T06:46:05.974Z,7.40
2022-11-23T06:51:10.110Z,7.42
2022-11-23T06:56:14.315Z,7.46
2022-11-23T07:01:18.517Z,7.47
2022-11-23T07:06:22.596Z,7.45
2022-11-23T07:11:26.796Z,7.41
2022-11-23T07:16:30.941Z,7.39
2022-11-23T07:21:33.213Z,7.42
2022-11-23T07:26:37.419Z,7.40
2022-11-23T07:31:41.532Z,7.33
2022-11-23T07:36:45.691Z,7.25
2022-11-23T07:41:51.475Z,7.18
2022-11-23T07:46:54.023Z,7.15
2022-11-23T07:51:56.292Z,7.14
2022-11-23T07:57:00.464Z,7.20
2022-11-23T08:02:04.675Z,7.24
2022-11-23T08:07:08.860Z,7.29
2022-11-23T08:12:12.981Z,7.38
2022-11-23T08:17:17.079Z,7.49
2022-11-23T08:22:21.251Z,7.57
2022-11-23T08:27:25.445Z,7.69
2022-11-23T08:32:29.598Z,7.78
2022-11-23T08:37:33.728Z,7.91
2022-11-23T08:42:37.907Z,7.93
2022-11-23T08:47:42.229Z,7.97
2022-11-23T08:52:46.241Z,7.97
2022-11-23T08:57:50.406Z,7.99
2022-11-23T09:02:54.601Z,7.99
2022-11-23T09:07:58.765Z,8.05
2022-11-23T09:13:02.880Z,7.98
2022-11-23T09:18:07.044Z,8.02
2022-11-23T09:23:14.342Z,8.07
2022-11-23T09:28:15.385Z,8.06
2022-11-23T09:33:19.539Z,8.13
2022-11-23T09:38:44.534Z,8.16
2022-11-23T09:43:27.876Z,8.17
2022-11-23T09:48:32.024Z,8.25
2022-11-23T09:53:36.177Z,8.24
2022-11-23T09:58:40.360Z,8.31
2022-11-23T10:03:48.739Z,8.36
2022-11-23T10:08:48.661Z,8.42
2022-11-23T10:13:52.815Z,8.43
2022-11-23T10:18:57.026Z,8.52
2022-11-23T10:24:01.140Z,8.56
2022-11-23T10:29:05.317Z,8.65
2022-11-23T10:34:09.471Z,8.66
2022-11-23T10:39:13.653Z,8.65
2022-11-23T10:44:17.805Z,8.70
2022-11-23T10:49:21.968Z,8.75
2022-11-23T10:54:26.163Z,8.85
2022-11-23T10:59:30.265Z,8.89
2022-11-23T11:04:34.748Z,8.89
2022-11-23T11:09:38.609Z,8.94
2022-11-23T11:14:43.519Z,8.96
2022-11-23T11:19:46.903Z,9.05
2022-11-23T11:24:51.085Z,9.13
2022-11-23T11:29:55.239Z,9.18
2022-11-23T11:34:59.423Z,9.21
2022-11-23T11:40:03.569Z,9.33
2022-11-23T11:45:07.737Z,9.33
2022-11-23T11:50:11.984Z,9.35
2022-11-23T11:55:16.052Z,9.26
2022-11-23T12:00:20.233Z,9.31
2022-11-23T12:05:24.390Z,9.33
2022-11-23T12:10:28.519Z,9.39
2022-11-23T12:15:48.796Z,9.41
2022-11-23T12:20:36.860Z,9.46
2022-11-23T12:25:41.012Z,9.44
2022-11-23T12:30:45.220Z,9.57
2022-11-23T12:35:49.336Z,9.61
2022-11-23T12:40:53.499Z,9.59
2022-11-23T12:45:57.649Z,9.72
2022-11-23T12:51:01.919Z,9.63
2022-11-23T12:56:05.971Z,9.64
2022-11-23T13:01:10.247Z,9.63
2022-11-23T13:06:14.348Z,9.58
2022-11-23T13:11:18.497Z,9.60
2022-11-23T13:16:22.832Z,9.53
2022-11-23T13:21:24.879Z,9.58
2022-11-23T13:26:29.079Z,9.54
2022-11-23T13:31:33.278Z,9.61
2022-11-23T13:37:10.631Z,9.43
2022-11-23T13:41:41.531Z,9.41
2022-11-23T13:46:45.735Z,9.43
2022-11-23T13:51:49.887Z,9.35
2022-11-23T13:56:54.066Z,9.39
2022-11-23T14:01:58.260Z,9.34
2022-11-23T14:07:02.346Z,9.26
2022-11-23T14:12:06.498Z,9.10
2022-11-23T14:17:10.675Z,8.98
2022-11-23T14:22:14.812Z,8.75
2022-11-23T14:27:45.856Z,8.59
2022-11-23T14:32:23.147Z,8.57
2022-11-23T14:37:27.350Z,8.51
2022-11-23T14:42:31.480Z,8.40
2022-11-23T14:47:35.672Z,8.38
2022-11-23T14:52:39.816Z,8.33
2022-11-23T14:57:43.956Z,8.28
2022-11-23T15:02:48.188Z,8.22
2022-11-23T15:07:52.359Z,8.14
2022-11-23T15:12:56.468Z,8.06
2022-11-23T15:18:00.636Z,8.12
2022-11-23T15:23:04.831Z,8.01
2022-11-23T15:28:08.931Z,8.02
2022-11-23T15:33:13.187Z,8.12
2022-11-23T15:38:22.022Z,8.20
2022-11-23T15:43:21.439Z,8.24
2022-11-23T15:48:25.583Z,8.28
2022-11-23T15:53:29.772Z,8.26
2022-11-23T15:58:33.925Z,8.24
2022-11-23T16:03:38.069Z,8.30
2022-11-23T16:08:42.234Z,8.26
2022-11-23T16:13:46.383Z,8.28
2022-11-23T16:18:50.581Z,8.28
2022-11-23T16:23:54.699Z,8.26
2022-11-23T16:28:58.901Z,8.22
2022-11-23T16:34:03.033Z,8.21
2022-11-23T16:39:07.208Z,8.17
2022-11-23T16:44:11.367Z,8.09
2022-11-23T16:49:15.524Z,7.98
2022-11-23T16:54:24.624Z,7.90
2022-11-23T16:59:23.897Z,7.82
2022-11-23T17:04:28.061Z,7.72
2022-11-23T17:09:32.447Z,7.65
2022-11-23T17:14:36.653Z,7.54
2022-11-23T17:19:40.546Z,7.49
2022-11-23T17:24:44.688Z,7.41
2022-11-23T17:29:48.912Z,7.35
2022-11-23T17:34:53.041Z,7.35
2022-11-23T17:39:57.154Z,7.31
2022-11-23T17:45:01.315Z,7.30
2022-11-23T17:50:05.484Z,7.28
2022-11-23T17:55:09.679Z,7.27
2022-11-23T18:00:13.798Z,7.23
2022-11-23T18:05:21.623Z,7.20
2022-11-23T18:10:22.150Z,7.18
2022-11-23T18:15:26.306Z,7.13
2022-11-23T18:20:30.463Z,7.10
2022-11-23T18:25:34.630Z,7.06
2022-11-23T18:30:38.851Z,7.05
2022-11-23T18:35:42.936Z,7.00
2022-11-23T18:40:47.096Z,6.98
2022-11-23T18:45:51.258Z,6.93
2022-11-23T18:50:53.548Z,6.94
2022-11-23T18:56:00.397Z,6.91
2022-11-23T19:01:01.896Z,6.92
2022-11-23T19:06:06.057Z,6.96
2022-11-23T19:11:10.222Z,7.02
2022-11-23T19:16:14.455Z,7.06
2022-11-23T19:21:18.556Z,7.06
2022-11-23T19:26:22.690Z,7.07
2022-11-23T19:31:26.904Z,7.08
2022-11-23T19:36:31.003Z,7.14
2022-11-23T19:41:35.196Z,7.15
2022-11-23T19:46:39.479Z,7.20
2022-11-23T19:51:43.586Z,7.25
2022-11-23T19:56:47.725Z,7.31
2022-11-23T20:01:51.903Z,7.34
2022-11-23T20:06:55.981Z,7.38
2022-11-23T20:12:00.182Z,7.39
2022-11-23T20:17:04.288Z,7.38
2022-11-23T20:22:08.504Z,7.32
2022-11-23T20:27:12.638Z,7.35
2022-11-23T20:32:16.780Z,7.40
2022-11-23T20:37:20.941Z,7.40
2022-11-23T20:42:25.137Z,7.36
2022-11-23T20:47:29.306Z,7.32
2022-11-23T20:52:33.443Z,7.30
2022-11-23T20:57:37.585Z,7.34
2022-11-23T21:02:41.824Z,7.35
2022-11-23T21:07:45.970Z,7.32
2022-11-23T21:12:50.719Z,7.25
2022-11-23T21:17:54.222Z,7.33
2022-11-23T21:22:58.426Z,7.30
2022-11-23T21:28:02.572Z,7.25
2022-11-23T21:33:06.720Z,7.23
2022-11-23T21:38:10.918Z,7.32
2022-11-23T21:43:15.034Z,7.39
2022-11-23T21:53:23.390Z,7.39
2022-11-23T21:58:27.530Z,7.39
2022-11-23T22:03:31.739Z,7.38
2022-11-23T22:08:35.920Z,7.46
2022-11-23T22:13:40.041Z,7.42
2022-11-23T22:18:44.188Z,7.41
2022-11-23T22:23:48.374Z,7.50
2022-11-23T22:28:52.527Z,7.49
2022-11-23T22:33:56.690Z,7.55
2022-11-23T22:39:01.697Z,7.48
2022-11-23T22:44:05.006Z,7.62
2022-11-23T22:49:09.175Z,7.55
2022-11-23T22:54:13.361Z,7.59
2022-11-23T22:59:17.500Z,7.68
2022-11-23T23:04:21.654Z,7.79
2022-11-23T23:09:25.828Z,7.88
2022-11-23T23:14:30.088Z,7.91
2022-11-23T23:19:34.170Z,7.91
2022-11-23T23:24:38.325Z,8.05
2022-11-23T23:29:42.455Z,8.17
2022-11-23T23:34:46.637Z,8.19
2022-11-23T23:39:50.802Z,8.32
2022-11-23T23:44:54.934Z,8.34
2022-11-23T23:49:59.109Z,8.34
2022-11-23T23:55:03.257Z,8.38
